sensor_id;sensor_type;location;lat;lon;timestamp;P1;durP1;ratioP1;P2;durP2;ratioP2
36221;SDS011;22266;52.340;4.962;2022-08-25T00:01:21;16.00;;;15.75;;
36221;SDS011;22266;52.340;4.962;2022-08-25T00:03:57;14.00;;;14.00;;
36221;SDS011;22266;52.340;4.962;2022-08-25T00:06:24;12.50;;;11.25;;
36221;SDS011;22266;52.340;4.962;2022-08-25T00:08:51;14.25;;;12.50;;
36221;SDS011;22266;52.340;4.962;2022-08-25T00:11:19;17.00;;;16.25;;
36221;SDS011;22266;52.340;4.962;2022-08-25T00:13:49;18.25;;;18.25;;
36221;SDS011;22266;52.340;4.962;2022-08-25T00:16:19;17.50;;;17.50;;
36221;SDS011;22266;52.340;4.962;2022-08-25T00:18:49;15.25;;;15.25;;
36221;SDS011;22266;52.340;4.962;2022-08-25T00:21:18;13.75;;;13.75;;
36221;SDS011;22266;52.340;4.962;2022-08-25T00:23:46;15.75;;;14.75;;
36221;SDS011;22266;52.340;4.962;2022-08-25T00:26:13;15.00;;;15.00;;
36221;SDS011;22266;52.340;4.962;2022-08-25T00:28:41;13.25;;;13.00;;
36221;SDS011;22266;52.340;4.962;2022-08-25T00:31:12;11.50;;;11.50;;
36221;SDS011;22266;52.340;4.962;2022-08-25T00:33:40;19.00;;;16.75;;
36221;SDS011;22266;52.340;4.962;2022-08-25T00:36:08;18.75;;;15.50;;
36221;SDS011;22266;52.340;4.962;2022-08-25T00:38:41;18.00;;;16.50;;
36221;SDS011;22266;52.340;4.962;2022-08-25T00:41:09;14.25;;;14.25;;
36221;SDS011;22266;52.340;4.962;2022-08-25T00:46:08;18.00;;;18.00;;
36221;SDS011;22266;52.340;4.962;2022-08-25T00:48:35;14.50;;;13.25;;
36221;SDS011;22266;52.340;4.962;2022-08-25T00:51:05;14.00;;;13.00;;
36221;SDS011;22266;52.340;4.962;2022-08-25T00:53:34;20.00;;;19.25;;
36221;SDS011;22266;52.340;4.962;2022-08-25T00:56:01;12.25;;;12.25;;
36221;SDS011;22266;52.340;4.962;2022-08-25T00:58:28;21.25;;;19.75;;
36221;SDS011;22266;52.340;4.962;2022-08-25T01:00:57;19.25;;;19.25;;
36221;SDS011;22266;52.340;4.962;2022-08-25T01:03:25;20.25;;;18.75;;
36221;SDS011;22266;52.340;4.962;2022-08-25T01:06:01;15.50;;;15.50;;
36221;SDS011;22266;52.340;4.962;2022-08-25T01:08:29;17.75;;;17.50;;
36221;SDS011;22266;52.340;4.962;2022-08-25T01:10:58;18.75;;;18.00;;
36221;SDS011;22266;52.340;4.962;2022-08-25T01:15:59;18.00;;;18.00;;
36221;SDS011;22266;52.340;4.962;2022-08-25T01:18:31;15.75;;;15.25;;
36221;SDS011;22266;52.340;4.962;2022-08-25T01:21:08;18.00;;;16.00;;
36221;SDS011;22266;52.340;4.962;2022-08-25T01:23:34;19.25;;;19.25;;
36221;SDS011;22266;52.340;4.962;2022-08-25T01:29:07;24.00;;;22.25;;
36221;SDS011;22266;52.340;4.962;2022-08-25T01:31:47;17.50;;;17.50;;
36221;SDS011;22266;52.340;4.962;2022-08-25T01:34:18;20.00;;;19.50;;
36221;SDS011;22266;52.340;4.962;2022-08-25T01:36:44;12.50;;;12.50;;
36221;SDS011;22266;52.340;4.962;2022-08-25T01:39:11;19.00;;;16.00;;
36221;SDS011;22266;52.340;4.962;2022-08-25T01:41:44;14.25;;;14.25;;
36221;SDS011;22266;52.340;4.962;2022-08-25T01:44:16;10.75;;;10.75;;
36221;SDS011;22266;52.340;4.962;2022-08-25T01:46:43;15.50;;;14.25;;
36221;SDS011;22266;52.340;4.962;2022-08-25T01:49:10;16.00;;;16.00;;
36221;SDS011;22266;52.340;4.962;2022-08-25T01:51:37;15.25;;;13.75;;
36221;SDS011;22266;52.340;4.962;2022-08-25T01:54:09;16.75;;;14.75;;
36221;SDS011;22266;52.340;4.962;2022-08-25T01:56:35;10.25;;;10.25;;
36221;SDS011;22266;52.340;4.962;2022-08-25T01:59:02;14.50;;;14.50;;
36221;SDS011;22266;52.340;4.962;2022-08-25T02:01:28;17.00;;;16.25;;
36221;SDS011;22266;52.340;4.962;2022-08-25T02:03:55;12.00;;;11.75;;
36221;SDS011;22266;52.340;4.962;2022-08-25T02:06:24;19.75;;;17.25;;
36221;SDS011;22266;52.340;4.962;2022-08-25T02:08:56;15.50;;;13.50;;
36221;SDS011;22266;52.340;4.962;2022-08-25T02:11:26;15.25;;;15.25;;
36221;SDS011;22266;52.340;4.962;2022-08-25T02:13:55;12.50;;;12.00;;
36221;SDS011;22266;52.340;4.962;2022-08-25T02:16:24;15.00;;;15.00;;
36221;SDS011;22266;52.340;4.962;2022-08-25T02:18:54;13.25;;;13.00;;
36221;SDS011;22266;52.340;4.962;2022-08-25T02:21:21;12.25;;;10.50;;
36221;SDS011;22266;52.340;4.962;2022-08-25T02:23:48;10.50;;;9.75;;
36221;SDS011;22266;52.340;4.962;2022-08-25T02:26:15;15.25;;;15.25;;
36221;SDS011;22266;52.340;4.962;2022-08-25T02:28:45;16.00;;;16.00;;
36221;SDS011;22266;52.340;4.962;2022-08-25T02:31:12;14.25;;;14.25;;
36221;SDS011;22266;52.340;4.962;2022-08-25T02:33:39;16.50;;;14.50;;
36221;SDS011;22266;52.340;4.962;2022-08-25T02:36:06;14.25;;;14.25;;
36221;SDS011;22266;52.340;4.962;2022-08-25T02:38:34;14.75;;;12.75;;
36221;SDS011;22266;52.340;4.962;2022-08-25T02:41:07;15.00;;;14.25;;
36221;SDS011;22266;52.340;4.962;2022-08-25T02:43:38;15.25;;;14.00;;
36221;SDS011;22266;52.340;4.962;2022-08-25T02:46:06;17.00;;;17.00;;
36221;SDS011;22266;52.340;4.962;2022-08-25T02:48:35;15.25;;;15.25;;
36221;SDS011;22266;52.340;4.962;2022-08-25T02:51:02;14.00;;;13.00;;
36221;SDS011;22266;52.340;4.962;2022-08-25T02:53:29;15.00;;;15.00;;
36221;SDS011;22266;52.340;4.962;2022-08-25T02:55:55;14.25;;;14.25;;
36221;SDS011;22266;52.340;4.962;2022-08-25T02:58:22;19.50;;;17.75;;
36221;SDS011;22266;52.340;4.962;2022-08-25T03:00:49;15.25;;;14.50;;
36221;SDS011;22266;52.340;4.962;2022-08-25T03:03:15;15.75;;;14.75;;
36221;SDS011;22266;52.340;4.962;2022-08-25T03:05:44;16.75;;;16.75;;
36221;SDS011;22266;52.340;4.962;2022-08-25T03:08:10;13.00;;;13.00;;
36221;SDS011;22266;52.340;4.962;2022-08-25T03:10:37;14.00;;;13.50;;
36221;SDS011;22266;52.340;4.962;2022-08-25T03:13:04;14.25;;;14.25;;
36221;SDS011;22266;52.340;4.962;2022-08-25T03:15:31;15.50;;;12.25;;
36221;SDS011;22266;52.340;4.962;2022-08-25T03:17:58;12.00;;;12.00;;
36221;SDS011;22266;52.340;4.962;2022-08-25T03:20:28;13.00;;;12.50;;
36221;SDS011;22266;52.340;4.962;2022-08-25T03:22:55;12.75;;;12.25;;
36221;SDS011;22266;52.340;4.962;2022-08-25T03:25:22;13.00;;;13.00;;
36221;SDS011;22266;52.340;4.962;2022-08-25T03:28:07;14.25;;;14.25;;
36221;SDS011;22266;52.340;4.962;2022-08-25T03:30:33;11.00;;;11.00;;
36221;SDS011;22266;52.340;4.962;2022-08-25T03:33:00;16.50;;;16.50;;
36221;SDS011;22266;52.340;4.962;2022-08-25T03:35:27;13.50;;;12.75;;
36221;SDS011;22266;52.340;4.962;2022-08-25T03:37:56;13.75;;;13.00;;
36221;SDS011;22266;52.340;4.962;2022-08-25T03:40:24;13.25;;;13.25;;
36221;SDS011;22266;52.340;4.962;2022-08-25T03:42:51;10.00;;;10.00;;
36221;SDS011;22266;52.340;4.962;2022-08-25T03:45:19;13.75;;;13.75;;
36221;SDS011;22266;52.340;4.962;2022-08-25T03:47:46;12.50;;;12.50;;
36221;SDS011;22266;52.340;4.962;2022-08-25T03:50:14;12.75;;;12.75;;
36221;SDS011;22266;52.340;4.962;2022-08-25T03:52:42;12.50;;;11.75;;
36221;SDS011;22266;52.340;4.962;2022-08-25T03:55:09;14.25;;;13.25;;
36221;SDS011;22266;52.340;4.962;2022-08-25T03:57:37;13.50;;;12.00;;
36221;SDS011;22266;52.340;4.962;2022-08-25T04:00:05;12.75;;;12.75;;
36221;SDS011;22266;52.340;4.962;2022-08-25T04:02:36;11.50;;;11.50;;
36221;SDS011;22266;52.340;4.962;2022-08-25T04:05:04;13.50;;;12.75;;
36221;SDS011;22266;52.340;4.962;2022-08-25T04:07:31;12.00;;;12.00;;
36221;SDS011;22266;52.340;4.962;2022-08-25T04:09:57;12.50;;;12.50;;
36221;SDS011;22266;52.340;4.962;2022-08-25T04:12:24;11.25;;;10.00;;
36221;SDS011;22266;52.340;4.962;2022-08-25T04:14:50;15.25;;;14.00;;
36221;SDS011;22266;52.340;4.962;2022-08-25T04:17:17;14.50;;;12.00;;
36221;SDS011;22266;52.340;4.962;2022-08-25T04:19:44;13.00;;;13.00;;
36221;SDS011;22266;52.340;4.962;2022-08-25T04:22:10;14.25;;;13.25;;
36221;SDS011;22266;52.340;4.962;2022-08-25T04:24:38;13.50;;;12.25;;
36221;SDS011;22266;52.340;4.962;2022-08-25T04:27:05;12.25;;;12.25;;
36221;SDS011;22266;52.340;4.962;2022-08-25T04:29:32;12.00;;;12.00;;
36221;SDS011;22266;52.340;4.962;2022-08-25T04:31:58;13.50;;;13.50;;
36221;SDS011;22266;52.340;4.962;2022-08-25T04:34:25;11.75;;;11.75;;
36221;SDS011;22266;52.340;4.962;2022-08-25T04:37:00;11.75;;;11.00;;
36221;SDS011;22266;52.340;4.962;2022-08-25T04:39:28;11.50;;;10.75;;
36221;SDS011;22266;52.340;4.962;2022-08-25T04:41:55;12.50;;;11.50;;
36221;SDS011;22266;52.340;4.962;2022-08-25T04:44:22;13.00;;;13.00;;
36221;SDS011;22266;52.340;4.962;2022-08-25T04:46:48;10.00;;;10.00;;
36221;SDS011;22266;52.340;4.962;2022-08-25T04:49:15;10.50;;;10.50;;
36221;SDS011;22266;52.340;4.962;2022-08-25T04:51:42;11.75;;;11.75;;
36221;SDS011;22266;52.340;4.962;2022-08-25T04:54:09;9.75;;;9.75;;
36221;SDS011;22266;52.340;4.962;2022-08-25T04:56:39;9.00;;;8.00;;
36221;SDS011;22266;52.340;4.962;2022-08-25T04:59:07;9.25;;;9.25;;
36221;SDS011;22266;52.340;4.962;2022-08-25T05:01:39;9.25;;;8.25;;
36221;SDS011;22266;52.340;4.962;2022-08-25T05:04:08;8.00;;;8.00;;
36221;SDS011;22266;52.340;4.962;2022-08-25T05:06:53;7.00;;;7.00;;
36221;SDS011;22266;52.340;4.962;2022-08-25T05:09:20;8.00;;;8.00;;
36221;SDS011;22266;52.340;4.962;2022-08-25T05:11:47;10.00;;;10.00;;
36221;SDS011;22266;52.340;4.962;2022-08-25T05:14:13;8.25;;;8.25;;
36221;SDS011;22266;52.340;4.962;2022-08-25T05:16:43;7.25;;;7.25;;
36221;SDS011;22266;52.340;4.962;2022-08-25T05:19:10;9.25;;;9.25;;
36221;SDS011;22266;52.340;4.962;2022-08-25T05:21:36;12.00;;;8.25;;
36221;SDS011;22266;52.340;4.962;2022-08-25T05:24:03;8.00;;;8.00;;
36221;SDS011;22266;52.340;4.962;2022-08-25T05:26:30;10.25;;;9.25;;
36221;SDS011;22266;52.340;4.962;2022-08-25T05:28:58;8.25;;;8.25;;
36221;SDS011;22266;52.340;4.962;2022-08-25T05:31:27;7.00;;;7.00;;
36221;SDS011;22266;52.340;4.962;2022-08-25T05:33:54;9.00;;;9.00;;
36221;SDS011;22266;52.340;4.962;2022-08-25T05:36:22;9.25;;;8.25;;
36221;SDS011;22266;52.340;4.962;2022-08-25T05:38:49;11.00;;;8.50;;
36221;SDS011;22266;52.340;4.962;2022-08-25T05:41:17;10.00;;;8.75;;
36221;SDS011;22266;52.340;4.962;2022-08-25T05:43:46;8.75;;;8.75;;
36221;SDS011;22266;52.340;4.962;2022-08-25T05:46:14;8.75;;;8.75;;
36221;SDS011;22266;52.340;4.962;2022-08-25T05:48:43;10.00;;;10.00;;
36221;SDS011;22266;52.340;4.962;2022-08-25T05:51:10;9.25;;;9.25;;
36221;SDS011;22266;52.340;4.962;2022-08-25T05:53:39;9.00;;;9.00;;
36221;SDS011;22266;52.340;4.962;2022-08-25T05:56:07;8.75;;;8.25;;
36221;SDS011;22266;52.340;4.962;2022-08-25T05:58:35;8.75;;;8.75;;
36221;SDS011;22266;52.340;4.962;2022-08-25T06:01:01;11.25;;;10.75;;
36221;SDS011;22266;52.340;4.962;2022-08-25T06:03:48;9.00;;;8.50;;
36221;SDS011;22266;52.340;4.962;2022-08-25T06:06:15;9.50;;;9.00;;
36221;SDS011;22266;52.340;4.962;2022-08-25T06:08:42;10.25;;;10.25;;
36221;SDS011;22266;52.340;4.962;2022-08-25T06:11:10;7.25;;;6.75;;
36221;SDS011;22266;52.340;4.962;2022-08-25T06:13:37;9.00;;;9.00;;
36221;SDS011;22266;52.340;4.962;2022-08-25T06:16:04;8.00;;;8.00;;
36221;SDS011;22266;52.340;4.962;2022-08-25T06:18:31;11.75;;;11.75;;
36221;SDS011;22266;52.340;4.962;2022-08-25T06:20:58;8.50;;;8.50;;
36221;SDS011;22266;52.340;4.962;2022-08-25T06:23:24;8.25;;;7.25;;
36221;SDS011;22266;52.340;4.962;2022-08-25T06:25:51;11.75;;;10.75;;
36221;SDS011;22266;52.340;4.962;2022-08-25T06:28:19;9.75;;;9.75;;
36221;SDS011;22266;52.340;4.962;2022-08-25T06:30:46;11.50;;;11.00;;
36221;SDS011;22266;52.340;4.962;2022-08-25T06:33:12;11.50;;;10.00;;
36221;SDS011;22266;52.340;4.962;2022-08-25T06:35:40;8.00;;;8.00;;
36221;SDS011;22266;52.340;4.962;2022-08-25T06:38:08;9.00;;;8.50;;
36221;SDS011;22266;52.340;4.962;2022-08-25T06:40:35;12.00;;;12.00;;
36221;SDS011;22266;52.340;4.962;2022-08-25T06:43:03;8.00;;;7.00;;
36221;SDS011;22266;52.340;4.962;2022-08-25T06:45:34;11.75;;;10.75;;
36221;SDS011;22266;52.340;4.962;2022-08-25T06:48:00;9.25;;;9.25;;
36221;SDS011;22266;52.340;4.962;2022-08-25T06:50:27;10.75;;;10.75;;
36221;SDS011;22266;52.340;4.962;2022-08-25T06:52:53;8.50;;;8.50;;
36221;SDS011;22266;52.340;4.962;2022-08-25T06:55:20;9.75;;;8.50;;
36221;SDS011;22266;52.340;4.962;2022-08-25T06:57:46;9.00;;;9.00;;
36221;SDS011;22266;52.340;4.962;2022-08-25T07:00:13;10.00;;;10.00;;
36221;SDS011;22266;52.340;4.962;2022-08-25T07:02:39;11.00;;;10.25;;
36221;SDS011;22266;52.340;4.962;2022-08-25T07:05:07;9.00;;;9.00;;
36221;SDS011;22266;52.340;4.962;2022-08-25T07:07:38;9.00;;;8.00;;
36221;SDS011;22266;52.340;4.962;2022-08-25T07:10:09;9.50;;;9.50;;
36221;SDS011;22266;52.340;4.962;2022-08-25T07:12:35;11.25;;;9.75;;
36221;SDS011;22266;52.340;4.962;2022-08-25T07:15:02;12.50;;;12.50;;
36221;SDS011;22266;52.340;4.962;2022-08-25T07:17:45;10.75;;;10.00;;
36221;SDS011;22266;52.340;4.962;2022-08-25T07:20:12;11.50;;;11.50;;
36221;SDS011;22266;52.340;4.962;2022-08-25T07:22:39;9.00;;;8.25;;
36221;SDS011;22266;52.340;4.962;2022-08-25T07:25:06;10.50;;;10.00;;
36221;SDS011;22266;52.340;4.962;2022-08-25T07:27:34;13.50;;;12.25;;
36221;SDS011;22266;52.340;4.962;2022-08-25T07:30:00;8.50;;;8.50;;
36221;SDS011;22266;52.340;4.962;2022-08-25T07:32:29;9.00;;;8.50;;
36221;SDS011;22266;52.340;4.962;2022-08-25T07:34:55;8.75;;;8.75;;
36221;SDS011;22266;52.340;4.962;2022-08-25T07:37:44;7.25;;;7.25;;
36221;SDS011;22266;52.340;4.962;2022-08-25T07:40:19;6.75;;;6.75;;
36221;SDS011;22266;52.340;4.962;2022-08-25T07:42:49;9.00;;;9.00;;
36221;SDS011;22266;52.340;4.962;2022-08-25T07:45:18;8.00;;;8.00;;
36221;SDS011;22266;52.340;4.962;2022-08-25T07:47:46;5.50;;;5.50;;
36221;SDS011;22266;52.340;4.962;2022-08-25T07:50:16;8.50;;;8.50;;
36221;SDS011;22266;52.340;4.962;2022-08-25T07:52:43;9.00;;;8.00;;
36221;SDS011;22266;52.340;4.962;2022-08-25T07:55:18;7.00;;;7.00;;
36221;SDS011;22266;52.340;4.962;2022-08-25T07:57:45;10.50;;;9.00;;
36221;SDS011;22266;52.340;4.962;2022-08-25T08:00:18;6.75;;;6.25;;
36221;SDS011;22266;52.340;4.962;2022-08-25T08:02:45;6.75;;;6.75;;
36221;SDS011;22266;52.340;4.962;2022-08-25T08:05:12;10.00;;;8.00;;
36221;SDS011;22266;52.340;4.962;2022-08-25T08:07:39;8.50;;;7.50;;
36221;SDS011;22266;52.340;4.962;2022-08-25T08:10:09;7.25;;;6.75;;
36221;SDS011;22266;52.340;4.962;2022-08-25T08:12:58;9.50;;;9.50;;
36221;SDS011;22266;52.340;4.962;2022-08-25T08:15:25;7.50;;;6.75;;
36221;SDS011;22266;52.340;4.962;2022-08-25T08:17:55;8.75;;;8.75;;
36221;SDS011;22266;52.340;4.962;2022-08-25T08:20:23;8.00;;;7.50;;
36221;SDS011;22266;52.340;4.962;2022-08-25T08:22:50;6.00;;;6.00;;
36221;SDS011;22266;52.340;4.962;2022-08-25T08:25:17;8.00;;;7.75;;
36221;SDS011;22266;52.340;4.962;2022-08-25T08:27:46;8.25;;;7.25;;
36221;SDS011;22266;52.340;4.962;2022-08-25T08:30:13;10.50;;;10.50;;
36221;SDS011;22266;52.340;4.962;2022-08-25T08:32:40;12.00;;;11.00;;
36221;SDS011;22266;52.340;4.962;2022-08-25T08:35:26;9.25;;;9.25;;
36221;SDS011;22266;52.340;4.962;2022-08-25T08:37:53;7.00;;;7.00;;
36221;SDS011;22266;52.340;4.962;2022-08-25T08:40:20;8.00;;;8.00;;
36221;SDS011;22266;52.340;4.962;2022-08-25T08:45:35;6.75;;;6.75;;
36221;SDS011;22266;52.340;4.962;2022-08-25T08:53:58;9.00;;;9.00;;
36221;SDS011;22266;52.340;4.962;2022-08-25T08:56:43;5.25;;;5.25;;
36221;SDS011;22266;52.340;4.962;2022-08-25T08:59:17;8.00;;;7.25;;
36221;SDS011;22266;52.340;4.962;2022-08-25T09:01:56;9.00;;;8.00;;
36221;SDS011;22266;52.340;4.962;2022-08-25T09:04:31;7.00;;;6.50;;
36221;SDS011;22266;52.340;4.962;2022-08-25T09:07:03;11.75;;;10.00;;
36221;SDS011;22266;52.340;4.962;2022-08-25T09:09:36;10.00;;;9.00;;
36221;SDS011;22266;52.340;4.962;2022-08-25T09:18:29;7.25;;;6.25;;
36221;SDS011;22266;52.340;4.962;2022-08-25T09:21:34;7.50;;;7.00;;
36221;SDS011;22266;52.340;4.962;2022-08-25T09:27:23;8.00;;;8.00;;
36221;SDS011;22266;52.340;4.962;2022-08-25T09:30:05;12.50;;;12.00;;
36221;SDS011;22266;52.340;4.962;2022-08-25T09:32:39;8.00;;;7.50;;
36221;SDS011;22266;52.340;4.962;2022-08-25T09:35:18;10.33;;;7.00;;
36221;SDS011;22266;52.340;4.962;2022-08-25T09:40:23;8.00;;;7.50;;
36221;SDS011;22266;52.340;4.962;2022-08-25T09:42:52;9.00;;;9.00;;
36221;SDS011;22266;52.340;4.962;2022-08-25T09:50:49;8.00;;;8.00;;
36221;SDS011;22266;52.340;4.962;2022-08-25T09:53:17;9.75;;;7.50;;
36221;SDS011;22266;52.340;4.962;2022-08-25T09:55:51;9.00;;;9.00;;
36221;SDS011;22266;52.340;4.962;2022-08-25T09:58:31;9.75;;;9.75;;
36221;SDS011;22266;52.340;4.962;2022-08-25T10:01:11;10.00;;;8.25;;
36221;SDS011;22266;52.340;4.962;2022-08-25T10:03:52;8.50;;;8.00;;
36221;SDS011;22266;52.340;4.962;2022-08-25T10:06:22;10.00;;;10.00;;
36221;SDS011;22266;52.340;4.962;2022-08-25T10:08:52;8.50;;;8.50;;
36221;SDS011;22266;52.340;4.962;2022-08-25T10:11:36;7.75;;;7.00;;
36221;SDS011;22266;52.340;4.962;2022-08-25T10:14:49;8.50;;;8.50;;
36221;SDS011;22266;52.340;4.962;2022-08-25T10:17:11;8.75;;;8.75;;
36221;SDS011;22266;52.340;4.962;2022-08-25T10:22:46;9.25;;;8.75;;
36221;SDS011;22266;52.340;4.962;2022-08-25T10:25:17;6.00;;;6.00;;
36221;SDS011;22266;52.340;4.962;2022-08-25T10:30:34;10.00;;;9.25;;
36221;SDS011;22266;52.340;4.962;2022-08-25T10:33:25;7.75;;;7.00;;
36221;SDS011;22266;52.340;4.962;2022-08-25T10:36:15;8.00;;;8.00;;
36221;SDS011;22266;52.340;4.962;2022-08-25T10:38:53;6.00;;;6.00;;
36221;SDS011;22266;52.340;4.962;2022-08-25T10:44:33;6.00;;;6.00;;
36221;SDS011;22266;52.340;4.962;2022-08-25T10:50:21;9.75;;;8.75;;
36221;SDS011;22266;52.340;4.962;2022-08-25T10:53:11;9.25;;;9.25;;
36221;SDS011;22266;52.340;4.962;2022-08-25T10:58:51;11.75;;;11.25;;
36221;SDS011;22266;52.340;4.962;2022-08-25T11:01:34;9.00;;;9.00;;
36221;SDS011;22266;52.340;4.962;2022-08-25T11:04:13;6.75;;;6.75;;
36221;SDS011;22266;52.340;4.962;2022-08-25T11:10:26;9.00;;;8.00;;
36221;SDS011;22266;52.340;4.962;2022-08-25T11:13:03;9.00;;;9.00;;
36221;SDS011;22266;52.340;4.962;2022-08-25T11:15:42;8.75;;;8.25;;
36221;SDS011;22266;52.340;4.962;2022-08-25T11:18:56;5.00;;;5.00;;
36221;SDS011;22266;52.340;4.962;2022-08-25T11:21:43;7.50;;;6.75;;
36221;SDS011;22266;52.340;4.962;2022-08-25T11:24:28;6.75;;;6.75;;
36221;SDS011;22266;52.340;4.962;2022-08-25T11:27:03;7.00;;;7.00;;
36221;SDS011;22266;52.340;4.962;2022-08-25T11:29:32;5.00;;;5.00;;
36221;SDS011;22266;52.340;4.962;2022-08-25T11:32:04;5.00;;;5.00;;
36221;SDS011;22266;52.340;4.962;2022-08-25T11:34:32;4.00;;;4.00;;
36221;SDS011;22266;52.340;4.962;2022-08-25T11:37:25;8.25;;;6.75;;
36221;SDS011;22266;52.340;4.962;2022-08-25T11:48:34;7.25;;;7.25;;
36221;SDS011;22266;52.340;4.962;2022-08-25T11:56:55;6.00;;;6.00;;
36221;SDS011;22266;52.340;4.962;2022-08-25T12:05:48;6.25;;;6.25;;
36221;SDS011;22266;52.340;4.962;2022-08-25T12:08:06;6.00;;;6.00;;
36221;SDS011;22266;52.340;4.962;2022-08-25T12:10:52;7.00;;;7.00;;
36221;SDS011;22266;52.340;4.962;2022-08-25T12:13:28;7.25;;;7.25;;
36221;SDS011;22266;52.340;4.962;2022-08-25T12:16:06;6.00;;;6.00;;
36221;SDS011;22266;52.340;4.962;2022-08-25T12:27:21;7.00;;;7.00;;
36221;SDS011;22266;52.340;4.962;2022-08-25T12:30:12;7.00;;;6.25;;
36221;SDS011;22266;52.340;4.962;2022-08-25T12:32:58;5.75;;;5.75;;
36221;SDS011;22266;52.340;4.962;2022-08-25T12:35:36;9.50;;;9.50;;
36221;SDS011;22266;52.340;4.962;2022-08-25T12:38:17;9.00;;;6.00;;
36221;SDS011;22266;52.340;4.962;2022-08-25T12:41:03;7.00;;;7.00;;
36221;SDS011;22266;52.340;4.962;2022-08-25T12:43:37;5.75;;;5.75;;
36221;SDS011;22266;52.340;4.962;2022-08-25T12:51:54;8.00;;;8.00;;
36221;SDS011;22266;52.340;4.962;2022-08-25T12:59:56;6.00;;;6.00;;
36221;SDS011;22266;52.340;4.962;2022-08-25T13:11:14;4.50;;;4.50;;
36221;SDS011;22266;52.340;4.962;2022-08-25T13:13:50;4.25;;;4.25;;
36221;SDS011;22266;52.340;4.962;2022-08-25T13:16:27;5.00;;;5.00;;
36221;SDS011;22266;52.340;4.962;2022-08-25T13:18:56;6.00;;;6.00;;
36221;SDS011;22266;52.340;4.962;2022-08-25T13:21:38;5.25;;;5.25;;
36221;SDS011;22266;52.340;4.962;2022-08-25T13:27:06;5.75;;;5.75;;
36221;SDS011;22266;52.340;4.962;2022-08-25T13:29:52;5.25;;;5.25;;
36221;SDS011;22266;52.340;4.962;2022-08-25T13:32:31;6.00;;;6.00;;
36221;SDS011;22266;52.340;4.962;2022-08-25T13:38:17;6.00;;;5.00;;
36221;SDS011;22266;52.340;4.962;2022-08-25T13:40:44;7.00;;;6.00;;
36221;SDS011;22266;52.340;4.962;2022-08-25T13:43:12;5.50;;;5.50;;
36221;SDS011;22266;52.340;4.962;2022-08-25T13:45:45;5.50;;;5.50;;
36221;SDS011;22266;52.340;4.962;2022-08-25T13:48:30;5.25;;;4.50;;
36221;SDS011;22266;52.340;4.962;2022-08-25T13:51:18;7.50;;;6.25;;
36221;SDS011;22266;52.340;4.962;2022-08-25T13:54:04;5.75;;;5.75;;
36221;SDS011;22266;52.340;4.962;2022-08-25T13:56:34;5.75;;;5.75;;
36221;SDS011;22266;52.340;4.962;2022-08-25T13:59:20;6.50;;;6.50;;
36221;SDS011;22266;52.340;4.962;2022-08-25T14:01:51;5.75;;;5.00;;
36221;SDS011;22266;52.340;4.962;2022-08-25T14:04:30;5.00;;;5.00;;
36221;SDS011;22266;52.340;4.962;2022-08-25T14:09:59;6.00;;;6.00;;
36221;SDS011;22266;52.340;4.962;2022-08-25T14:12:43;6.00;;;6.00;;
36221;SDS011;22266;52.340;4.962;2022-08-25T14:17:42;5.00;;;5.00;;
36221;SDS011;22266;52.340;4.962;2022-08-25T14:20:30;6.25;;;6.25;;
36221;SDS011;22266;52.340;4.962;2022-08-25T14:22:59;7.50;;;7.50;;
36221;SDS011;22266;52.340;4.962;2022-08-25T14:25:35;8.00;;;7.50;;
36221;SDS011;22266;52.340;4.962;2022-08-25T14:28:08;6.00;;;6.00;;
36221;SDS011;22266;52.340;4.962;2022-08-25T14:30:41;6.50;;;5.00;;
36221;SDS011;22266;52.340;4.962;2022-08-25T14:33:12;5.00;;;5.00;;
36221;SDS011;22266;52.340;4.962;2022-08-25T14:35:40;6.00;;;6.00;;
36221;SDS011;22266;52.340;4.962;2022-08-25T14:38:11;5.00;;;5.00;;
36221;SDS011;22266;52.340;4.962;2022-08-25T14:40:39;8.25;;;8.25;;
36221;SDS011;22266;52.340;4.962;2022-08-25T14:43:08;7.00;;;7.00;;
36221;SDS011;22266;52.340;4.962;2022-08-25T14:45:36;9.25;;;9.00;;
36221;SDS011;22266;52.340;4.962;2022-08-25T14:48:07;9.00;;;9.00;;
36221;SDS011;22266;52.340;4.962;2022-08-25T14:50:38;7.00;;;7.00;;
36221;SDS011;22266;52.340;4.962;2022-08-25T14:53:07;7.25;;;7.00;;
36221;SDS011;22266;52.340;4.962;2022-08-25T14:55:36;8.75;;;8.75;;
36221;SDS011;22266;52.340;4.962;2022-08-25T14:58:04;10.25;;;10.25;;
36221;SDS011;22266;52.340;4.962;2022-08-25T15:00:33;9.50;;;8.75;;
36221;SDS011;22266;52.340;4.962;2022-08-25T15:03:02;8.75;;;8.75;;
36221;SDS011;22266;52.340;4.962;2022-08-25T15:05:29;8.75;;;8.75;;
36221;SDS011;22266;52.340;4.962;2022-08-25T15:07:56;10.50;;;10.50;;
36221;SDS011;22266;52.340;4.962;2022-08-25T15:10:41;10.75;;;10.75;;
36221;SDS011;22266;52.340;4.962;2022-08-25T15:13:08;8.75;;;8.00;;
36221;SDS011;22266;52.340;4.962;2022-08-25T15:15:37;7.25;;;7.25;;
36221;SDS011;22266;52.340;4.962;2022-08-25T15:18:18;9.00;;;9.00;;
36221;SDS011;22266;52.340;4.962;2022-08-25T15:20:45;8.25;;;8.25;;
36221;SDS011;22266;52.340;4.962;2022-08-25T15:23:15;8.75;;;8.75;;
36221;SDS011;22266;52.340;4.962;2022-08-25T15:25:44;8.25;;;8.00;;
36221;SDS011;22266;52.340;4.962;2022-08-25T15:28:12;9.75;;;8.75;;
36221;SDS011;22266;52.340;4.962;2022-08-25T15:30:42;10.50;;;10.50;;
36221;SDS011;22266;52.340;4.962;2022-08-25T15:33:11;8.50;;;8.00;;
36221;SDS011;22266;52.340;4.962;2022-08-25T15:35:38;9.50;;;9.25;;
36221;SDS011;22266;52.340;4.962;2022-08-25T15:38:06;9.00;;;9.00;;
36221;SDS011;22266;52.340;4.962;2022-08-25T15:40:33;8.75;;;8.75;;
36221;SDS011;22266;52.340;4.962;2022-08-25T15:43:02;7.25;;;7.25;;
36221;SDS011;22266;52.340;4.962;2022-08-25T15:45:29;8.75;;;8.00;;
36221;SDS011;22266;52.340;4.962;2022-08-25T15:47:56;10.00;;;10.00;;
36221;SDS011;22266;52.340;4.962;2022-08-25T15:50:23;12.75;;;9.75;;
36221;SDS011;22266;52.340;4.962;2022-08-25T15:52:51;12.00;;;9.50;;
36221;SDS011;22266;52.340;4.962;2022-08-25T15:55:18;9.00;;;9.00;;
36221;SDS011;22266;52.340;4.962;2022-08-25T15:57:45;6.75;;;5.25;;
36221;SDS011;22266;52.340;4.962;2022-08-25T16:00:15;10.75;;;10.75;;
36221;SDS011;22266;52.340;4.962;2022-08-25T16:02:43;11.50;;;10.75;;
36221;SDS011;22266;52.340;4.962;2022-08-25T16:05:11;12.25;;;11.75;;
36221;SDS011;22266;52.340;4.962;2022-08-25T16:07:39;14.25;;;14.25;;
36221;SDS011;22266;52.340;4.962;2022-08-25T16:10:06;12.75;;;12.75;;
36221;SDS011;22266;52.340;4.962;2022-08-25T16:12:32;15.25;;;15.25;;
36221;SDS011;22266;52.340;4.962;2022-08-25T16:14:59;14.25;;;14.00;;
36221;SDS011;22266;52.340;4.962;2022-08-25T16:17:26;14.00;;;14.00;;
36221;SDS011;22266;52.340;4.962;2022-08-25T16:19:53;14.25;;;14.25;;
36221;SDS011;22266;52.340;4.962;2022-08-25T16:22:19;12.25;;;12.25;;
36221;SDS011;22266;52.340;4.962;2022-08-25T16:24:46;13.50;;;13.50;;
36221;SDS011;22266;52.340;4.962;2022-08-25T16:27:13;14.75;;;14.50;;
36221;SDS011;22266;52.340;4.962;2022-08-25T16:29:41;18.50;;;18.50;;
36221;SDS011;22266;52.340;4.962;2022-08-25T16:32:09;16.00;;;16.00;;
36221;SDS011;22266;52.340;4.962;2022-08-25T16:34:38;19.00;;;17.50;;
36221;SDS011;22266;52.340;4.962;2022-08-25T16:37:06;17.00;;;17.00;;
36221;SDS011;22266;52.340;4.962;2022-08-25T16:39:34;17.00;;;17.00;;
36221;SDS011;22266;52.340;4.962;2022-08-25T16:42:00;16.00;;;16.00;;
36221;SDS011;22266;52.340;4.962;2022-08-25T16:44:27;14.75;;;14.00;;
36221;SDS011;22266;52.340;4.962;2022-08-25T16:46:53;21.75;;;20.50;;
36221;SDS011;22266;52.340;4.962;2022-08-25T16:49:21;28.25;;;26.75;;
36221;SDS011;22266;52.340;4.962;2022-08-25T16:51:50;38.75;;;35.50;;